Montería, Colombia

4:23 PM COT en Noviembre 24, 2014 (GMT -0500)
Universidad de Cordoba | Change Station
CLOSE
Current Station
Estación meteorológica personal
Location: Monteria, C�RDOBA
Altura: 49 ft
Estaciones meteorológicas cercanas

Alt 49 ft 8.79 °N, 75.86 °W | Updated 5 minutes ago

Mostly Cloudy
Muy nublado
78.1 ° F
Sensación térmica 81 ° F
N
2.2
Viento Variable Viento desde NO
Gusts 2.2 mph

Hoy
Alta -- | Baja -- ° F
--% Posibilidad de precipitaciones
Ayer
Alta -- | Baja -- ° F
Precip. -- pul
5:59 AM 5:40 PM
Creciente, 7% visible
Presión 29.70 pul
Visibilidad 6.2 Millas
Nubes Nubes dispersas 2000 ft
Muy nublado 8000 ft
Índice de calor 81 ° F
Punto de rocío 75 ° F
Humedad 90%
Precipitaciones 0.00 pul
Espesor de la nieve No disponible.
UV 1.0 de una escala de 12
Polen No disponible.
Calidad del aire No disponible.
Flu Activity No disponible.
METAR SKMR 242100Z 00000KT 9999 SCT020 BKN080 26/24 A2970 RETSRA

More Conditions Fewer Conditions

Presión 29.70 pul
Visibilidad 6.2 Millas
Nubes Nubes dispersas 2000 ft
Muy nublado 8000 ft
Índice de calor 81 ° F
Punto de rocío 75 ° F
Humedad 90%
Precipitaciones 0.00 pul
Espesor de la nieve No disponible.
UV 1.0 de una escala de 12
Polen No disponible.
Calidad del aire No disponible.
Flu Activity No disponible.
METAR SKMR 242100Z 00000KT 9999 SCT020 BKN080 26/24 A2970 RETSRA

More Conditions Fewer Conditions

10-Day Weather Forecast

Almanac

Astronomía

Nov. 24, 2014 Salida Puesta
Hora real
Crepúsculo civil
Crepúsculo náutico
Crepúsculo astronómico
Luna
Horas de luz
Horas de luz
Tomorrow will be .
, % of the Moon is Illuminated

Extremos de hoy

Máximos del país Bajas del país

Community

WunderPhotos

Upload Photos

1,773,414 ¡fotos cargadas!

WunderBlogs® & News

Nearby

Calidad del aire

  Calidad del aire Índice AQ Contaminante
Not available.

Grosos de nieve

Estación Profundido Altura

Actividad de terremotos

Ciudad Distance Mag. Tiempo y dato
Magnitud mínima muestra es 2,5.

Temperaturas de aguas costeras

Lugar Temperatura

Estaciones meteorológicas cercanas